Time;durP1;ratioP1;P1;durP2;ratioP2;P2;SDS_P1;SDS_P2;PMS_P1;PMS_P2;Temp;Humidity;BMP_temperature;BMP_pressure;BME280_temperature;BME280_humidity;BME280_pressure;Samples;Min_cycle;Max_cycle;Signal;HPM_P1;HPM_P2
2022/11/06 00:00:25;;;;;;;3.75;2.00;;;18.40;65.50;;;;;;6310027;22;20159;-79
2022/11/06 00:02:51;;;;;;;4.05;1.77;;;18.40;65.40;;;;;;6231372;22;20151;-79
2022/11/06 00:07:57;;;;;;;3.42;1.70;;;18.40;65.20;;;;;;6309839;22;20198;-79
2022/11/06 00:10:23;;;;;;;3.35;1.90;;;18.40;65.30;;;;;;6283049;22;20139;-79
2022/11/06 00:12:49;;;;;;;3.55;1.83;;;18.40;65.30;;;;;;6310412;22;20502;-79
2022/11/06 00:15:15;;;;;;;3.90;1.90;;;18.40;65.20;;;;;;6310251;22;20500;-79
2022/11/06 00:17:41;;;;;;;3.40;1.83;;;18.40;65.50;;;;;;6309987;22;20140;-79
2022/11/06 00:20:08;;;;;;;2.75;1.95;;;18.40;65.30;;;;;;6309896;22;20470;-79
2022/11/06 00:22:35;;;;;;;3.90;1.80;;;18.40;65.30;;;;;;6310082;22;20574;-79
2022/11/06 00:25:02;;;;;;;2.60;1.92;;;18.40;65.40;;;;;;6310374;22;20136;-79
2022/11/06 00:27:28;;;;;;;2.83;1.95;;;18.40;65.40;;;;;;6309926;22;20133;-79
2022/11/06 00:29:57;;;;;;;2.60;1.80;;;18.40;65.50;;;;;;6282700;22;20159;-79
2022/11/06 00:32:23;;;;;;;2.67;1.90;;;18.40;66.40;;;;;;6205636;22;20148;-79
2022/11/06 00:34:49;;;;;;;3.78;2.13;;;18.40;65.60;;;;;;6309451;22;20134;-79
2022/11/06 00:37:15;;;;;;;2.78;2.00;;;18.40;65.70;;;;;;6309736;22;20194;-79
2022/11/06 00:39:45;;;;;;;2.95;2.03;;;18.30;65.80;;;;;;6309285;22;20132;-79
2022/11/06 00:42:11;;;;;;;2.30;1.73;;;18.30;65.90;;;;;;6181086;22;20152;-79
2022/11/06 00:44:37;;;;;;;1.90;1.80;;;18.30;65.80;;;;;;6282329;22;20163;-80
2022/11/06 00:47:07;;;;;;;2.50;1.73;;;18.40;66.00;;;;;;6309785;22;20136;-79
2022/11/06 00:49:33;;;;;;;2.90;2.00;;;18.30;65.80;;;;;;6205521;22;20187;-79
2022/11/06 00:52:03;;;;;;;2.88;1.92;;;18.30;65.90;;;;;;6309857;22;20136;-79
2022/11/06 00:54:29;;;;;;;2.35;1.77;;;18.30;65.90;;;;;;6205548;22;20154;-79
2022/11/06 00:56:59;;;;;;;3.08;1.75;;;18.30;65.90;;;;;;6309526;22;20182;-79
2022/11/06 00:59:24;;;;;;;2.35;1.73;;;18.30;65.80;;;;;;6230759;22;20542;-79
2022/11/06 01:01:50;;;;;;;3.03;1.58;;;18.30;65.80;;;;;;6309063;22;20575;-79
2022/11/06 01:04:22;;;;;;;2.47;1.63;;;18.30;65.90;;;;;;6309351;22;20223;-79
2022/11/06 01:06:55;;;;;;;2.20;1.50;;;18.20;66.00;;;;;;6230067;22;20156;-79
2022/11/06 01:09:23;;;;;;;1.70;1.60;;;18.30;65.80;;;;;;6254090;22;20200;-79
2022/11/06 01:11:51;;;;;;;2.17;1.80;;;18.30;66.00;;;;;;6309247;22;20150;-79
2022/11/06 01:14:18;;;;;;;2.65;2.03;;;18.30;65.90;;;;;;6281669;22;20151;-79
2022/11/06 01:16:44;;;;;;;2.42;1.92;;;18.30;66.80;;;;;;6309043;22;20219;-79
2022/11/06 01:19:17;;;;;;;1.92;1.73;;;18.30;66.00;;;;;;6307968;22;20136;-79
2022/11/06 01:21:45;;;;;;;2.08;1.73;;;18.30;65.90;;;;;;6230753;22;20575;-79
2022/11/06 01:24:18;;;;;;;2.45;1.65;;;18.30;65.70;;;;;;6281387;22;20184;-79
2022/11/06 01:26:44;;;;;;;4.10;1.90;;;18.30;65.70;;;;;;6308207;22;20148;-79
2022/11/06 01:29:12;;;;;;;3.38;1.90;;;18.20;65.70;;;;;;6281114;22;20506;-79
2022/11/06 01:31:38;;;;;;;2.20;1.90;;;18.30;65.60;;;;;;6309137;22;20164;-79
2022/11/06 01:34:04;;;;;;;2.05;1.60;;;18.30;65.40;;;;;;6308671;22;20189;-79
2022/11/06 01:36:30;;;;;;;2.75;1.70;;;18.30;65.40;;;;;;6309188;22;20144;-79
2022/11/06 01:39:02;;;;;;;4.18;2.05;;;18.30;65.50;;;;;;6281797;22;20217;-79
2022/11/06 01:41:34;;;;;;;3.53;1.73;;;18.30;66.00;;;;;;6230528;22;20155;-79
2022/11/06 01:44:03;;;;;;;3.55;1.80;;;18.30;65.80;;;;;;6309152;22;20136;-79
2022/11/06 01:46:31;;;;;;;2.50;2.00;;;18.30;65.60;;;;;;6309379;22;20158;-79
2022/11/06 01:49:04;;;;;;;3.78;2.05;;;18.30;65.90;;;;;;6308363;22;20160;-79
2022/11/06 01:51:39;;;;;;;1.88;1.70;;;18.30;65.80;;;;;;6310095;22;20168;-79
2022/11/06 01:54:05;;;;;;;3.35;1.70;;;18.20;65.70;;;;;;6309519;22;20143;-80
2022/11/06 01:56:31;;;;;;;3.15;1.80;;;18.30;65.80;;;;;;6311653;22;20136;-79
2022/11/06 01:58:57;;;;;;;3.45;1.80;;;18.30;65.90;;;;;;6311881;22;20136;-81
2022/11/06 02:01:27;;;;;;;3.50;1.90;;;18.30;65.90;;;;;;6312514;22;20137;-80
2022/11/06 02:04:04;;;;;;;2.83;1.98;;;18.30;66.00;;;;;;6233680;22;20155;-79
2022/11/06 02:06:30;;;;;;;3.10;2.00;;;18.20;66.10;;;;;;6270027;22;20151;-79
2022/11/06 02:08:56;;;;;;;2.60;2.00;;;18.20;66.10;;;;;;6306115;22;20184;-79
2022/11/06 02:11:22;;;;;;;2.90;1.80;;;18.20;66.30;;;;;;6290204;22;20155;-79
2022/11/06 02:14:08;;;;;;;3.08;1.80;;;18.20;66.40;;;;;;6309290;22;20132;-78
2022/11/06 02:16:50;;;;;;;2.47;1.80;;;18.20;66.30;;;;;;6233400;22;20225;-80
2022/11/06 02:19:37;;;;;;;2.38;1.70;;;18.20;66.30;;;;;;6207078;22;20213;-79
2022/11/06 02:22:32;;;;;;;2.53;1.95;;;18.10;66.30;;;;;;6310318;22;20146;-79
2022/11/06 02:25:14;;;;;;;2.95;1.70;;;18.20;66.20;;;;;;6223094;22;20238;-79
2022/11/06 02:27:43;;;;;;;2.20;1.80;;;18.20;66.10;;;;;;6309132;22;20468;-79
2022/11/06 02:30:10;;;;;;;1.73;1.55;;;18.20;65.90;;;;;;6309371;22;20163;-79
2022/11/06 02:32:42;;;;;;;3.08;2.00;;;18.20;65.80;;;;;;6282116;22;20210;-79
2022/11/06 02:35:29;;;;;;;3.13;1.70;;;18.20;66.10;;;;;;6308822;22;20608;-79
2022/11/06 02:37:59;;;;;;;2.72;1.88;;;18.20;65.60;;;;;;6308837;22;20564;-79
2022/11/06 02:40:30;;;;;;;4.10;2.00;;;18.30;66.00;;;;;;6281837;22;20146;-79
2022/11/06 02:42:56;;;;;;;3.97;1.90;;;18.20;67.00;;;;;;6308872;22;20132;-79
2022/11/06 02:45:22;;;;;;;4.20;1.92;;;18.20;66.30;;;;;;6309227;22;20144;-79
2022/11/06 02:47:49;;;;;;;2.25;1.75;;;18.20;66.00;;;;;;6281941;22;20160;-79
2022/11/06 02:50:22;;;;;;;2.17;1.80;;;18.20;66.30;;;;;;6308895;22;20168;-79
2022/11/06 02:52:53;;;;;;;2.80;1.67;;;18.10;66.10;;;;;;6281304;22;20167;-78
2022/11/06 02:55:33;;;;;;;2.92;1.92;;;18.20;66.40;;;;;;6308642;22;20128;-79
2022/11/06 02:58:05;;;;;;;3.83;2.03;;;18.20;66.60;;;;;;6281549;22;20177;-79
2022/11/06 03:00:31;;;;;;;2.78;2.10;;;18.20;66.50;;;;;;6281392;22;20135;-79
2022/11/06 03:03:05;;;;;;;2.53;1.73;;;18.20;66.40;;;;;;6282164;22;20133;-79
2022/11/06 03:05:45;;;;;;;2.92;1.80;;;18.20;66.10;;;;;;6231397;22;20300;-80
2022/11/06 03:08:16;;;;;;;2.25;1.85;;;18.10;66.40;;;;;;6308604;22;20269;-79
2022/11/06 03:10:47;;;;;;;1.85;1.67;;;18.20;66.40;;;;;;6256460;22;20178;-79
2022/11/06 03:13:21;;;;;;;2.30;2.10;;;18.20;66.50;;;;;;6281776;22;20154;-79
2022/11/06 03:16:04;;;;;;;2.10;1.70;;;18.20;66.70;;;;;;6205743;22;20153;-79
2022/11/06 03:18:41;;;;;;;2.25;1.83;;;18.20;66.60;;;;;;6308611;22;20139;-79
2022/11/06 03:21:21;;;;;;;1.95;1.50;;;18.10;66.60;;;;;;6232545;22;20158;-79
2022/11/06 03:23:54;;;;;;;3.33;1.85;;;18.10;66.60;;;;;;6281970;22;20508;-79
2022/11/06 03:26:25;;;;;;;4.53;1.92;;;18.10;66.30;;;;;;6231050;22;20238;-79
2022/11/06 03:29:01;;;;;;;2.83;1.88;;;18.20;66.40;;;;;;6281145;22;20160;-79
2022/11/06 03:31:31;;;;;;;2.00;1.80;;;18.20;66.50;;;;;;6233005;22;20147;-79
2022/11/06 03:34:00;;;;;;;1.95;1.73;;;18.20;66.30;;;;;;6308394;22;20128;-79
2022/11/06 03:36:30;;;;;;;1.98;1.65;;;18.10;66.20;;;;;;6308082;22;20213;-80
2022/11/06 03:38:59;;;;;;;5.00;1.83;;;18.10;66.30;;;;;;6308268;22;20140;-79
2022/11/06 03:41:38;;;;;;;2.25;1.80;;;18.20;66.30;;;;;;6280798;22;20213;-79
2022/11/06 03:44:05;;;;;;;3.75;1.88;;;18.20;66.40;;;;;;6308246;22;20197;-79
2022/11/06 03:46:31;;;;;;;1.98;1.58;;;18.20;66.50;;;;;;6308247;22;20185;-79
2022/11/06 03:48:59;;;;;;;1.98;1.60;;;18.10;66.50;;;;;;6308384;22;20170;-79
2022/11/06 03:51:51;;;;;;;3.25;1.90;;;18.10;66.40;;;;;;6308036;22;20186;-79
2022/11/06 03:54:25;;;;;;;2.08;1.70;;;18.10;66.50;;;;;;6280977;22;20132;-79
2022/11/06 03:56:56;;;;;;;2.47;1.95;;;18.10;66.50;;;;;;6230306;22;20151;-79
2022/11/06 03:59:25;;;;;;;3.15;2.03;;;18.10;66.40;;;;;;6254983;22;20180;-79
2022/11/06 04:01:52;;;;;;;2.22;1.73;;;18.10;66.70;;;;;;6308449;22;20136;-79
2022/11/06 04:04:22;;;;;;;2.97;1.77;;;18.10;66.50;;;;;;6307984;22;20132;-79
2022/11/06 04:07:05;;;;;;;1.95;1.70;;;18.10;66.50;;;;;;6280746;22;20556;-79
2022/11/06 04:15:04;;;;;;;2.05;1.50;;;18.10;66.40;;;;;;6308711;22;20530;-79
2022/11/06 04:17:34;;;;;;;2.33;2.00;;;18.10;66.30;;;;;;6308337;22;20564;-79
2022/11/06 04:20:03;;;;;;;3.13;1.75;;;18.10;66.20;;;;;;6229455;22;20602;-80
2022/11/06 04:22:53;;;;;;;2.25;1.70;;;18.10;66.10;;;;;;6306593;22;20625;-80
2022/11/06 04:28:42;;;;;;;4.95;1.90;;;18.10;66.30;;;;;;6306790;22;20645;-79
2022/11/06 04:31:23;;;;;;;3.05;1.70;;;18.10;66.60;;;;;;6308091;22;20140;-79
2022/11/06 04:33:59;;;;;;;2.53;1.80;;;18.10;66.50;;;;;;6308441;22;20608;-79
2022/11/06 04:36:40;;;;;;;3.00;2.00;;;18.10;66.70;;;;;;6255568;22;20174;-79
2022/11/06 04:39:30;;;;;;;2.15;1.80;;;18.10;66.50;;;;;;6308193;22;20193;-79
2022/11/06 04:42:30;;;;;;;1.98;1.77;;;18.10;66.60;;;;;;6308881;22;20159;-79
2022/11/06 04:45:00;;;;;;;2.60;1.77;;;18.10;66.30;;;;;;6265007;22;20152;-79
2022/11/06 04:47:26;;;;;;;2.22;1.75;;;18.10;66.30;;;;;;6307981;22;20586;-79
2022/11/06 04:49:52;;;;;;;2.90;1.67;;;18.10;66.40;;;;;;6307784;22;20203;-79
2022/11/06 04:52:19;;;;;;;3.60;1.75;;;18.10;66.70;;;;;;6309636;22;20295;-79
2022/11/06 04:54:49;;;;;;;3.65;1.77;;;18.10;66.70;;;;;;6308081;22;20185;-79
2022/11/06 04:57:15;;;;;;;3.03;2.03;;;18.10;66.70;;;;;;6255941;22;20211;-79
2022/11/06 04:59:41;;;;;;;3.03;1.90;;;18.10;66.90;;;;;;6309958;22;20564;-79
2022/11/06 05:02:07;;;;;;;2.63;1.77;;;18.10;66.40;;;;;;6309328;22;20143;-79
2022/11/06 05:04:33;;;;;;;2.22;1.90;;;18.10;66.40;;;;;;6309516;22;20141;-79
2022/11/06 05:06:59;;;;;;;3.17;1.70;;;18.10;66.80;;;;;;6309532;22;20218;-80
2022/11/06 05:09:25;;;;;;;2.45;1.80;;;18.10;66.90;;;;;;6308878;22;20195;-80
2022/11/06 05:11:51;;;;;;;2.50;1.83;;;18.00;66.60;;;;;;6282189;22;20144;-80
2022/11/06 05:14:17;;;;;;;2.63;1.85;;;18.00;66.40;;;;;;6309134;22;20128;-79
2022/11/06 05:16:43;;;;;;;2.22;1.70;;;18.10;66.70;;;;;;6281838;22;20583;-79
2022/11/06 05:19:09;;;;;;;2.17;1.52;;;18.10;66.50;;;;;;6282188;22;20144;-79
2022/11/06 05:24:13;;;;;;;2.33;1.60;;;18.10;67.40;;;;;;6309251;22;20143;-79
2022/11/06 05:26:42;;;;;;;2.72;1.80;;;18.10;66.40;;;;;;6281924;22;20156;-79
2022/11/06 05:29:09;;;;;;;3.03;1.60;;;18.10;66.30;;;;;;6205329;22;20233;-79
2022/11/06 05:31:35;;;;;;;1.85;1.60;;;18.10;66.30;;;;;;6309278;22;20606;-79
2022/11/06 05:34:01;;;;;;;2.00;1.60;;;18.10;66.30;;;;;;6256749;22;20152;-79
2022/11/06 05:36:27;;;;;;;2.15;1.70;;;18.10;66.30;;;;;;6281800;22;20124;-79
2022/11/06 05:38:53;;;;;;;2.90;1.75;;;18.10;66.50;;;;;;6256702;22;20152;-79
2022/11/06 05:41:19;;;;;;;2.45;1.70;;;18.10;66.40;;;;;;6281853;22;20171;-81
2022/11/06 05:43:45;;;;;;;1.83;1.60;;;18.10;66.50;;;;;;6309250;22;20136;-79
2022/11/06 05:46:11;;;;;;;2.25;1.88;;;18.10;66.40;;;;;;6281973;22;20267;-79
2022/11/06 05:48:41;;;;;;;1.75;1.63;;;18.10;66.60;;;;;;6308890;22;20209;-79
2022/11/06 05:51:07;;;;;;;2.10;1.70;;;18.10;66.90;;;;;;6204945;22;20144;-80
2022/11/06 05:53:37;;;;;;;3.50;1.75;;;18.10;66.50;;;;;;6281395;22;20211;-80
2022/11/06 05:56:04;;;;;;;2.20;1.83;;;18.10;66.50;;;;;;6230651;22;20148;-79
2022/11/06 05:58:30;;;;;;;2.50;1.50;;;18.10;66.40;;;;;;6308967;22;20132;-79
2022/11/06 06:01:00;;;;;;;2.78;1.85;;;18.10;66.50;;;;;;6308545;22;20136;-79
2022/11/06 06:03:27;;;;;;;2.25;1.60;;;18.10;66.50;;;;;;6230805;22;20151;-79
2022/11/06 06:05:53;;;;;;;2.35;1.85;;;18.10;66.80;;;;;;6281618;22;20212;-80
2022/11/06 06:08:18;;;;;;;2.72;1.65;;;18.10;66.70;;;;;;6308933;22;20187;-79
2022/11/06 06:10:49;;;;;;;2.15;1.40;;;18.10;66.70;;;;;;6255942;22;20156;-79
2022/11/06 06:13:15;;;;;;;2.85;1.98;;;18.10;66.90;;;;;;6204973;22;20156;-79
2022/11/06 06:15:45;;;;;;;1.88;1.67;;;18.10;66.70;;;;;;6281318;22;20575;-78
2022/11/06 06:18:14;;;;;;;2.10;1.52;;;18.10;66.80;;;;;;6229957;22;20653;-80
2022/11/06 06:20:40;;;;;;;2.53;1.80;;;18.10;66.70;;;;;;6229974;22;20635;-79
2022/11/06 06:23:06;;;;;;;2.05;1.50;;;18.00;66.70;;;;;;6281052;22;20160;-79
2022/11/06 06:25:32;;;;;;;2.88;1.85;;;18.10;66.80;;;;;;6308981;22;20132;-80
2022/11/06 06:27:58;;;;;;;2.45;1.73;;;18.10;66.80;;;;;;6308912;22;20129;-79
2022/11/06 06:30:28;;;;;;;1.73;1.60;;;18.10;66.40;;;;;;6280660;22;20532;-79
2022/11/06 06:32:54;;;;;;;1.70;1.50;;;18.10;66.90;;;;;;6229867;22;20597;-79
2022/11/06 06:35:20;;;;;;;1.60;1.48;;;18.10;66.70;;;;;;6308394;22;20128;-79
2022/11/06 06:37:51;;;;;;;2.63;1.48;;;18.00;66.80;;;;;;6308250;22;20451;-79
2022/11/06 06:40:17;;;;;;;2.30;1.80;;;18.00;66.70;;;;;;6308522;22;20136;-79
2022/11/06 06:42:43;;;;;;;2.67;1.73;;;18.10;66.90;;;;;;6281227;22;20136;-78
2022/11/06 06:45:09;;;;;;;2.15;1.70;;;18.10;66.80;;;;;;6308260;22;20209;-78
2022/11/06 06:47:35;;;;;;;2.20;1.80;;;18.10;66.70;;;;;;6308313;22;20211;-78
2022/11/06 06:50:01;;;;;;;3.22;1.73;;;18.10;66.70;;;;;;6308060;22;20162;-79
2022/11/06 06:52:30;;;;;;;2.80;1.73;;;18.10;66.70;;;;;;6281426;22;20144;-79
2022/11/06 06:54:56;;;;;;;1.90;1.70;;;18.10;66.90;;;;;;6229521;22;20613;-79
2022/11/06 06:57:22;;;;;;;2.50;1.70;;;18.10;66.70;;;;;;6308124;22;20136;-79
2022/11/06 06:59:52;;;;;;;2.78;1.88;;;18.10;66.70;;;;;;6307854;22;20140;-79
2022/11/06 07:02:18;;;;;;;2.70;1.90;;;18.10;66.60;;;;;;6204306;22;20163;-78
2022/11/06 07:04:44;;;;;;;2.75;1.77;;;18.00;66.90;;;;;;6280581;22;20144;-78
2022/11/06 07:07:09;;;;;;;2.45;1.85;;;18.10;66.80;;;;;;6280435;22;20147;-79
2022/11/06 07:09:35;;;;;;;3.10;1.92;;;18.10;66.60;;;;;;6308192;22;20168;-79
2022/11/06 07:12:01;;;;;;;3.08;1.60;;;18.00;66.50;;;;;;6308447;22;20128;-79
2022/11/06 07:14:27;;;;;;;2.90;1.63;;;18.00;66.50;;;;;;6308123;22;20511;-78
2022/11/06 07:16:53;;;;;;;3.58;1.67;;;18.00;66.60;;;;;;6280870;22;20556;-79
2022/11/06 07:19:19;;;;;;;2.78;1.63;;;18.10;66.80;;;;;;6308010;22;20499;-79
2022/11/06 07:21:45;;;;;;;3.20;1.73;;;18.10;66.70;;;;;;6280742;22;20189;-79
2022/11/06 07:24:11;;;;;;;1.73;1.50;;;18.00;66.10;;;;;;6308061;22;20261;-79
2022/11/06 07:26:37;;;;;;;1.60;1.50;;;18.10;66.00;;;;;;6307992;22;20167;-78
2022/11/06 07:29:07;;;;;;;2.13;1.67;;;18.10;66.10;;;;;;6307936;22;20340;-78
2022/11/06 07:31:33;;;;;;;2.35;1.75;;;18.10;66.40;;;;;;6206753;22;20202;-80
2022/11/06 07:33:59;;;;;;;3.40;1.90;;;18.10;66.40;;;;;;6309578;22;20544;-79
2022/11/06 07:36:25;;;;;;;1.90;1.60;;;18.10;66.50;;;;;;6280745;22;20132;-78
2022/11/06 07:38:51;;;;;;;2.20;1.75;;;18.10;66.60;;;;;;6280921;22;20564;-78
2022/11/06 07:41:16;;;;;;;2.80;1.67;;;18.10;66.60;;;;;;6307879;22;20136;-78
2022/11/06 07:43:43;;;;;;;3.58;1.88;;;18.10;66.50;;;;;;6308057;22;20437;-79
2022/11/06 07:46:10;;;;;;;3.05;1.60;;;18.00;66.50;;;;;;6280885;22;20633;-78
2022/11/06 07:48:36;;;;;;;1.80;1.50;;;18.10;66.70;;;;;;6280702;22;20164;-79
2022/11/06 07:51:03;;;;;;;2.08;1.50;;;18.10;66.70;;;;;;6308048;22;20132;-80
2022/11/06 07:53:29;;;;;;;2.10;1.60;;;18.10;66.50;;;;;;6281488;22;20160;-79
2022/11/06 07:55:55;;;;;;;2.65;1.67;;;18.10;66.40;;;;;;6308084;22;20464;-79
2022/11/06 07:58:22;;;;;;;4.18;1.65;;;18.10;66.50;;;;;;6308803;22;20142;-80
2022/11/06 08:00:53;;;;;;;3.53;1.60;;;18.10;66.70;;;;;;6307871;22;20203;-79
2022/11/06 08:03:19;;;;;;;2.83;1.60;;;18.10;66.30;;;;;;6229596;22;20223;-78
2022/11/06 08:05:45;;;;;;;1.92;1.50;;;18.10;66.40;;;;;;6308216;22;20190;-78
2022/11/06 08:08:11;;;;;;;3.63;1.58;;;18.10;66.50;;;;;;6289043;22;20217;-79
2022/11/06 08:10:43;;;;;;;2.17;1.50;;;18.10;66.30;;;;;;6308356;22;20633;-79
2022/11/06 08:13:09;;;;;;;1.73;1.60;;;18.10;66.30;;;;;;6229711;22;20153;-78
2022/11/06 08:15:37;;;;;;;1.90;1.45;;;18.10;66.40;;;;;;6307852;22;20140;-79
2022/11/06 08:18:08;;;;;;;1.90;1.67;;;18.10;66.40;;;;;;6307557;22;20132;-79
2022/11/06 08:20:35;;;;;;;5.13;1.70;;;18.10;66.50;;;;;;6257035;22;20159;-79
2022/11/06 08:23:08;;;;;;;2.03;1.70;;;18.10;66.40;;;;;;6310171;22;20135;-78
2022/11/06 08:25:34;;;;;;;2.25;1.63;;;18.20;66.50;;;;;;6257265;22;20652;-79
2022/11/06 08:28:05;;;;;;;1.95;1.63;;;18.20;66.40;;;;;;6309099;22;20182;-79
2022/11/06 08:30:30;;;;;;;2.35;1.50;;;18.20;65.80;;;;;;6257580;22;20239;-79
2022/11/06 08:33:01;;;;;;;2.03;1.50;;;18.30;66.70;;;;;;6312130;22;20209;-78
2022/11/06 08:35:26;;;;;;;2.10;1.38;;;18.30;65.60;;;;;;6313251;22;20140;-79
2022/11/06 08:37:52;;;;;;;2.15;1.60;;;18.30;65.60;;;;;;6313387;22;20510;-79
2022/11/06 08:40:19;;;;;;;2.33;1.35;;;18.30;65.40;;;;;;6313346;22;20135;-79
2022/11/06 08:42:46;;;;;;;1.90;1.40;;;18.30;65.50;;;;;;6311664;22;20144;-79
2022/11/06 08:45:14;;;;;;;3.15;1.70;;;18.30;65.60;;;;;;6314778;22;20128;-78
2022/11/06 08:47:39;;;;;;;3.20;1.85;;;18.30;65.60;;;;;;6312613;22;20227;-78
2022/11/06 08:50:05;;;;;;;2.78;1.60;;;18.40;65.40;;;;;;6312695;22;20497;-78
2022/11/06 08:52:31;;;;;;;2.22;1.73;;;18.40;65.30;;;;;;6311686;22;20137;-79
2022/11/06 08:54:58;;;;;;;2.80;1.50;;;18.30;65.10;;;;;;6314094;22;20208;-78
2022/11/06 08:57:24;;;;;;;1.75;1.60;;;18.40;65.50;;;;;;6314677;22;20132;-79
2022/11/06 08:59:50;;;;;;;2.85;1.60;;;18.40;65.50;;;;;;6286188;22;20141;-79
2022/11/06 09:02:15;;;;;;;4.20;1.60;;;18.40;65.20;;;;;;6312171;22;20205;-78
2022/11/06 09:04:41;;;;;;;3.70;1.55;;;18.40;65.00;;;;;;6312903;22;20136;-79
2022/11/06 09:07:08;;;;;;;1.67;1.38;;;18.40;65.10;;;;;;6312160;22;20132;-79
2022/11/06 09:09:34;;;;;;;2.08;1.48;;;18.40;65.10;;;;;;6316375;22;20654;-79
2022/11/06 09:12:00;;;;;;;1.98;1.52;;;18.50;65.00;;;;;;6343596;22;20127;-78
2022/11/06 09:14:26;;;;;;;2.55;1.20;;;18.50;64.80;;;;;;6290144;22;20216;-78
2022/11/06 09:16:53;;;;;;;1.50;1.20;;;18.50;64.80;;;;;;6315928;22;20204;-79
2022/11/06 09:19:20;;;;;;;1.88;1.30;;;18.50;64.70;;;;;;6315627;22;20214;-79
2022/11/06 09:21:45;;;;;;;2.22;1.50;;;18.50;64.10;;;;;;6342784;22;20185;-79
2022/11/06 09:24:12;;;;;;;3.75;1.60;;;18.50;64.70;;;;;;6264392;22;20144;-79
2022/11/06 09:26:38;;;;;;;2.40;1.60;;;18.50;64.50;;;;;;6343740;22;20136;-78
2022/11/06 09:29:03;;;;;;;1.60;1.23;;;18.50;64.40;;;;;;6361098;22;20190;-78
2022/11/06 09:31:29;;;;;;;1.52;1.10;;;18.50;64.30;;;;;;6314295;22;20131;-79
2022/11/06 09:33:55;;;;;;;2.00;1.80;;;18.50;64.10;;;;;;6330261;22;20156;-79
2022/11/06 09:36:22;;;;;;;2.75;1.38;;;18.60;64.10;;;;;;6348854;22;20213;-79
2022/11/06 09:38:50;;;;;;;2.75;1.33;;;18.60;64.40;;;;;;6347690;22;20177;-79
2022/11/06 09:41:38;;;;;;;3.65;1.40;;;18.60;63.90;;;;;;6349123;22;20135;-79
2022/11/06 09:44:21;;;;;;;2.15;1.33;;;18.60;64.10;;;;;;6348441;22;20150;-79
2022/11/06 09:46:48;;;;;;;1.63;1.40;;;18.60;64.10;;;;;;6325182;22;20134;-79
2022/11/06 09:49:34;;;;;;;1.63;1.52;;;18.60;63.20;;;;;;6350080;22;20155;-79
2022/11/06 09:52:25;;;;;;;1.88;1.27;;;18.60;63.60;;;;;;6324989;22;20131;-79
2022/11/06 09:54:55;;;;;;;1.58;1.48;;;18.60;63.80;;;;;;6348247;22;20582;-79
2022/11/06 09:57:31;;;;;;;2.05;1.40;;;18.60;63.90;;;;;;6348039;22;20154;-78
2022/11/06 09:59:57;;;;;;;2.15;1.60;;;18.60;63.90;;;;;;6320948;22;20563;-79
2022/11/06 10:02:34;;;;;;;3.72;1.67;;;18.60;64.30;;;;;;6349316;22;20139;-78
2022/11/06 10:05:07;;;;;;;2.70;1.35;;;18.60;64.40;;;;;;6247409;22;20150;-78
2022/11/06 10:07:34;;;;;;;2.83;1.42;;;18.60;64.50;;;;;;6345057;22;20186;-77
2022/11/06 10:10:02;;;;;;;2.42;1.42;;;18.60;64.20;;;;;;6292998;22;20164;-79
2022/11/06 10:12:41;;;;;;;2.45;1.55;;;18.60;64.10;;;;;;6266117;22;20159;-79
2022/11/06 10:15:24;;;;;;;2.67;1.40;;;18.50;64.10;;;;;;6318885;22;20466;-80
2022/11/06 10:17:59;;;;;;;2.08;1.52;;;18.60;64.40;;;;;;6291249;22;20190;-79
2022/11/06 10:20:30;;;;;;;3.25;1.58;;;18.60;64.30;;;;;;6318273;22;20140;-78
2022/11/06 10:23:05;;;;;;;1.70;1.40;;;18.60;64.20;;;;;;6319905;22;20163;-78
2022/11/06 10:25:45;;;;;;;3.58;1.40;;;18.60;63.80;;;;;;6318119;22;20642;-78
2022/11/06 10:28:33;;;;;;;3.53;1.50;;;18.60;63.80;;;;;;6318774;22;20132;-78
2022/11/06 10:31:20;;;;;;;1.83;1.58;;;18.60;63.60;;;;;;6318383;22;20448;-77
2022/11/06 10:34:01;;;;;;;1.98;1.40;;;18.70;63.00;;;;;;6318928;22;20132;-78
2022/11/06 10:36:30;;;;;;;2.10;1.60;;;18.70;63.60;;;;;;6293883;22;20199;-78
2022/11/06 10:38:57;;;;;;;3.40;1.88;;;18.70;63.20;;;;;;6317910;22;20139;-78
2022/11/06 10:41:26;;;;;;;3.38;1.85;;;18.70;63.20;;;;;;6319220;22;20143;-78
2022/11/06 10:44:03;;;;;;;3.95;2.10;;;18.70;62.80;;;;;;6320514;22;20183;-78
2022/11/06 10:46:36;;;;;;;1.50;1.40;;;18.80;63.40;;;;;;6320319;22;20461;-78
2022/11/06 10:49:05;;;;;;;2.53;1.52;;;18.80;62.70;;;;;;6291799;22;20160;-78
2022/11/06 10:51:47;;;;;;;4.38;1.65;;;18.80;63.40;;;;;;6317732;22;20129;-78
2022/11/06 10:54:51;;;;;;;1.85;1.55;;;18.80;63.10;;;;;;6316717;22;20139;-79
2022/11/06 10:57:51;;;;;;;4.15;1.73;;;18.70;63.20;;;;;;6318014;22;20544;-77
2022/11/06 11:00:21;;;;;;;3.60;1.45;;;18.80;63.40;;;;;;6318425;22;20155;-78
2022/11/06 11:02:56;;;;;;;6.20;1.60;;;18.70;63.60;;;;;;6213510;22;20155;-78
2022/11/06 11:05:22;;;;;;;2.28;1.55;;;18.70;63.20;;;;;;6318108;22;20135;-79
2022/11/06 11:07:48;;;;;;;4.03;1.65;;;18.70;63.40;;;;;;6317405;22;20202;-79
2022/11/06 11:10:32;;;;;;;5.57;1.63;;;18.70;63.80;;;;;;6289945;22;20179;-79
2022/11/06 11:13:05;;;;;;;4.70;1.73;;;18.70;63.80;;;;;;6319067;22;20187;-79
2022/11/06 11:15:42;;;;;;;2.45;1.50;;;18.70;64.00;;;;;;6215000;22;20148;-77
2022/11/06 11:18:18;;;;;;;5.60;1.80;;;18.70;63.90;;;;;;6245130;22;20151;-80
2022/11/06 11:20:46;;;;;;;5.93;1.60;;;18.70;64.00;;;;;;6291259;22;20144;-79
2022/11/06 11:23:18;;;;;;;3.22;1.60;;;18.70;63.80;;;;;;6265740;22;20144;-78
2022/11/06 11:26:00;;;;;;;4.28;1.65;;;18.70;63.50;;;;;;6265610;22;20140;-80
2022/11/06 11:28:30;;;;;;;3.97;1.58;;;18.70;64.20;;;;;;6177504;23;20187;-78
2022/11/06 11:31:08;;;;;;;3.42;1.60;;;18.70;63.80;;;;;;6174155;23;20145;-79
2022/11/06 11:33:50;;;;;;;7.53;1.70;;;18.70;63.40;;;;;;6199167;23;20149;-79
2022/11/06 11:36:16;;;;;;;5.13;1.30;;;18.70;63.50;;;;;;6177353;23;20150;-78
2022/11/06 11:38:44;;;;;;;3.10;1.60;;;18.70;63.50;;;;;;6200060;23;20150;-79
2022/11/06 11:41:21;;;;;;;2.17;1.30;;;18.70;63.40;;;;;;6198789;23;20134;-79
2022/11/06 11:44:12;;;;;;;3.70;1.50;;;18.80;64.00;;;;;;6199165;23;20207;-79
2022/11/06 11:46:52;;;;;;;2.75;1.40;;;18.70;62.90;;;;;;6182685;23;20150;-80
2022/11/06 11:49:32;;;;;;;4.60;1.60;;;18.80;63.20;;;;;;6177373;23;20200;-79
2022/11/06 11:52:03;;;;;;;2.90;1.70;;;18.80;63.80;;;;;;6178235;23;20146;-79
2022/11/06 11:54:31;;;;;;;5.50;1.73;;;18.80;63.20;;;;;;6153150;23;20146;-79
2022/11/06 11:57:00;;;;;;;1.67;1.50;;;18.80;63.40;;;;;;6204007;23;20469;-79
2022/11/06 11:59:28;;;;;;;3.00;1.42;;;18.80;63.90;;;;;;6282127;22;20470;-79
2022/11/06 12:01:55;;;;;;;2.13;1.40;;;18.80;63.60;;;;;;6294747;22;20144;-79
2022/11/06 12:04:27;;;;;;;1.67;1.50;;;18.80;63.10;;;;;;6294806;22;20152;-79
2022/11/06 12:06:58;;;;;;;3.38;1.35;;;18.80;63.50;;;;;;6292239;22;20147;-79
2022/11/06 12:09:24;;;;;;;2.45;1.67;;;18.80;63.50;;;;;;6320009;22;20184;-79
2022/11/06 12:11:51;;;;;;;3.67;1.50;;;18.80;63.30;;;;;;6292292;22;20145;-79
2022/11/06 12:14:27;;;;;;;5.53;1.48;;;18.80;63.10;;;;;;6269701;22;20576;-79
2022/11/06 12:17:13;;;;;;;2.53;1.70;;;18.80;63.60;;;;;;6322854;22;20205;-79
2022/11/06 12:19:40;;;;;;;3.78;1.65;;;18.80;63.60;;;;;;6229141;22;20554;-79
2022/11/06 12:22:11;;;;;;;2.38;1.60;;;18.80;63.50;;;;;;6322424;22;20144;-79
2022/11/06 12:24:45;;;;;;;3.33;1.63;;;18.80;63.80;;;;;;6270304;22;20514;-79
2022/11/06 12:27:19;;;;;;;2.92;1.70;;;18.80;63.80;;;;;;6297054;22;20166;-78
2022/11/06 12:29:50;;;;;;;3.20;1.65;;;18.80;64.00;;;;;;6242963;22;20190;-79
2022/11/06 12:32:53;;;;;;;3.58;1.60;;;18.70;63.50;;;;;;6320994;22;20269;-78
2022/11/06 12:35:37;;;;;;;4.00;1.60;;;18.70;63.70;;;;;;6319423;22;20523;-79
2022/11/06 12:38:33;;;;;;;4.15;1.65;;;18.80;64.10;;;;;;6243585;22;20158;-80
2022/11/06 12:41:02;;;;;;;3.33;1.60;;;18.80;63.70;;;;;;6322384;22;20148;-79
2022/11/06 12:43:45;;;;;;;2.97;1.80;;;18.80;63.90;;;;;;6269146;22;20209;-79
2022/11/06 12:46:43;;;;;;;2.92;1.55;;;18.70;63.50;;;;;;6292392;22;20204;-80
2022/11/06 12:49:31;;;;;;;1.80;1.38;;;18.80;63.90;;;;;;6317636;22;20607;-79
2022/11/06 12:52:34;;;;;;;3.78;1.58;;;18.80;63.90;;;;;;6288413;22;20152;-79
2022/11/06 12:55:24;;;;;;;5.15;1.75;;;18.80;63.60;;;;;;6301293;22;20185;-79
2022/11/06 12:58:02;;;;;;;2.70;1.52;;;18.80;63.60;;;;;;6224442;22;20213;-79
2022/11/06 13:00:50;;;;;;;3.15;1.67;;;18.80;63.50;;;;;;6320426;22;20218;-79
2022/11/06 13:03:54;;;;;;;4.22;1.50;;;18.80;63.40;;;;;;6320159;22;20171;-79
2022/11/06 13:06:48;;;;;;;2.22;1.40;;;18.80;63.40;;;;;;6297077;22;20575;-79
2022/11/06 13:09:19;;;;;;;3.33;1.50;;;18.80;63.60;;;;;;6253086;22;20195;-79
2022/11/06 13:12:14;;;;;;;3.58;1.77;;;18.80;63.40;;;;;;6321456;22;20181;-79
2022/11/06 13:15:02;;;;;;;3.38;1.55;;;18.80;63.50;;;;;;6294163;22;20182;-80
2022/11/06 13:17:48;;;;;;;3.65;1.58;;;18.80;63.50;;;;;;6321378;22;20203;-78
2022/11/06 13:20:25;;;;;;;2.00;1.50;;;18.80;63.20;;;;;;6244089;22;20148;-79
2022/11/06 13:22:57;;;;;;;1.85;1.45;;;18.80;63.30;;;;;;6294547;22;20207;-79